Aérodrome :
LOGIN :

S'inscrire | Disclaimer

   EN    FR    IT 

 










Légende :    VFR   VFR Marginal   IFR   IFR Intensif   IFR Très Intensif
Visi : 
Plafond : 
>= 8 km
>= 3000ft
5 à 8 km
1000 à 3000 ft
1500m à 5 km
500 à 1000 ft
800 à 1500m
200 à 500 ft
< 800m
< 200 ft
Symboles :   Orages  Brouillard  Fortes neiges  Fortes précipitations  Vent > 20 kt
SIGMETs :   Divers  Orages  Givrage  Turbulence  Onde Orograph.  Cendres Volcan.







- Altitude de l'aérodrome : 375 ft
- Code IATA : MST


EHBK - Maastricht Aachen

DERNIER METAR :
  • 181825Z AUTO 03005KT 9999 BKN007 OVC008 05/05 Q1027 TEMPO 6000

METARs EXPIRÉS :
  • 181755Z AUTO 03005KT 9999 FEW008 OVC010 05/05 Q1027 TEMPO 6000 RADZ
  • 181725Z AUTO 03005KT 9999 BKN008 OVC010 06/05 Q1027 TEMPO 6000 RADZ BKN012
  • 181655Z AUTO 01005KT 340V040 8000 +DZ SCT007 BKN009 OVC010 06/05 Q1026 TEMPO 4000 RADZ BKN012
  • 181625Z AUTO 34007KT 310V010 9999 SCT010 BKN013 OVC015 06/05 Q1026 REDZ TEMPO 6000 BKN009
  • 181555Z AUTO 33006KT 300V360 9999 SCT008 BKN009 OVC012 06/05 Q1025 TEMPO 6000

TAF TAF EHBK
Valide du 18 à 18h jusqu'au 20 à 00h UTC


181713Z 1818/1924 36007KT 7000 BKN012
PROB40
TEMPO 1818/1824 4000 BR -DZ BKN006
BECMG 1900/1903 23005KT 4000 BR BKN020
PROB30
TEMPO 1900/1909 1200 BCFG BKN002
BECMG 1912/1915 BKN006
TEMPO 1915/1921 1200 DZ BKN003
BECMG 1921/1924 1200 DZ BKN003
TEMPO 1921/1924 0800 FG BKN001
Pas de NOTAMs connus pour ce terrain.



MET'MAP, la Météo Aéronautique d'un coup d'oeil ! - Copyright ORBIFLY Décembre 2007 - Disclaimer

ORBIFLY MET'MAP TEAM :

Programmation & Développement : Alexandra Zaïnal
Conception & Développement : Baudouin d'Aumeries
Co-Programmation & Développement : Marc-Olivier Méhu
Soutien technique & logistique : Manuel Goepfert

Contact : metmap@orbifly.com




SOURCES & CREDITS :

   NOAA